Time;durP1;ratioP1;P1;durP2;ratioP2;P2;SDS_P1;SDS_P2;PMS_P1;PMS_P2;Temp;Humidity;BMP_temperature;BMP_pressure;BME280_temperature;BME280_humidity;BME280_pressure;Samples;Min_cycle;Max_cycle;Signal;HPM_P1;HPM_P2
2023/01/29 00:01:03;;;;;;;5.80;3.67;;;;;;;;;;4998527;28;20026;-80
2023/01/29 00:03:28;;;;;;;6.05;3.72;;;;;;;;;;4998298;28;20037;-80
2023/01/29 00:05:53;;;;;;;6.18;3.60;;;;;;;;;;4998750;28;20026;-81
2023/01/29 00:08:18;;;;;;;6.38;3.88;;;;;;;;;;4998492;28;20033;-79
2023/01/29 00:10:44;;;;;;;6.60;3.78;;;;;;;;;;4998712;28;20034;-81
2023/01/29 00:13:09;;;;;;;6.93;3.60;;;;;;;;;;4997110;28;20022;-81
2023/01/29 00:15:34;;;;;;;6.95;3.92;;;;;;;;;;4998412;28;20037;-80
2023/01/29 00:17:59;;;;;;;5.95;3.40;;;;;;;;;;4998368;28;20027;-81
2023/01/29 00:20:24;;;;;;;5.25;3.45;;;;;;;;;;5002653;28;20026;-81
2023/01/29 00:22:50;;;;;;;6.70;3.80;;;;;;;;;;5002517;28;20081;-81
2023/01/29 00:25:15;;;;;;;4.75;2.95;;;;;;;;;;5000847;28;20030;-82
2023/01/29 00:27:40;;;;;;;5.38;3.33;;;;;;;;;;5001367;28;20035;-81
2023/01/29 00:30:13;;;;;;;7.35;3.50;;;;;;;;;;5001492;28;20026;-81
2023/01/29 00:32:39;;;;;;;7.18;4.00;;;;;;;;;;5000685;28;20073;-79
2023/01/29 00:35:06;;;;;;;5.97;3.58;;;;;;;;;;5002635;28;20027;-82
2023/01/29 00:37:31;;;;;;;5.53;3.63;;;;;;;;;;4998797;28;20023;-82
2023/01/29 00:39:56;;;;;;;5.95;3.53;;;;;;;;;;4999513;28;20033;-82
2023/01/29 00:45:06;;;;;;;8.65;3.50;;;;;;;;;;4996071;28;20559;-82
2023/01/29 00:47:34;;;;;;;6.70;3.45;;;;;;;;;;4996366;28;20034;-81
2023/01/29 00:50:05;;;;;;;4.70;2.83;;;;;;;;;;4996402;28;20167;-82
2023/01/29 00:52:30;;;;;;;6.47;3.80;;;;;;;;;;4994642;28;20026;-83
2023/01/29 00:54:58;;;;;;;9.45;3.58;;;;;;;;;;4996150;28;20029;-83
2023/01/29 00:57:25;;;;;;;6.72;3.63;;;;;;;;;;4997050;28;20424;-80
2023/01/29 00:59:51;;;;;;;5.82;3.45;;;;;;;;;;4996879;28;20437;-82
2023/01/29 01:05:05;;;;;;;4.88;3.28;;;;;;;;;;4998096;28;20053;-81
2023/01/29 01:07:30;;;;;;;6.05;3.25;;;;;;;;;;4997594;28;20023;-82
2023/01/29 01:12:40;;;;;;;7.43;3.42;;;;;;;;;;4998617;28;20033;-82
2023/01/29 01:15:05;;;;;;;5.88;3.20;;;;;;;;;;4998976;28;20109;-82
2023/01/29 01:17:31;;;;;;;6.20;3.55;;;;;;;;;;4998904;28;20030;-83
2023/01/29 01:19:56;;;;;;;6.50;3.80;;;;;;;;;;4998496;28;20027;-82
2023/01/29 01:22:21;;;;;;;6.20;3.40;;;;;;;;;;4998334;28;20023;-84
2023/01/29 01:24:47;;;;;;;5.88;3.40;;;;;;;;;;4998316;28;20034;-82
2023/01/29 01:27:12;;;;;;;5.68;3.40;;;;;;;;;;4997666;28;20026;-82
2023/01/29 01:29:37;;;;;;;8.73;3.95;;;;;;;;;;4996169;28;20061;-79
2023/01/29 01:32:03;;;;;;;5.80;3.50;;;;;;;;;;4997757;28;20034;-82
2023/01/29 01:34:29;;;;;;;6.13;3.72;;;;;;;;;;4997886;28;20097;-82
2023/01/29 01:36:57;;;;;;;7.32;4.10;;;;;;;;;;4998460;28;20044;-82
2023/01/29 01:39:23;;;;;;;6.80;3.85;;;;;;;;;;4998663;28;20061;-81
2023/01/29 01:41:49;;;;;;;6.95;4.22;;;;;;;;;;4998471;28;20026;-81
2023/01/29 01:44:52;;;;;;;9.88;4.00;;;;;;;;;;4998231;28;20491;-81
2023/01/29 01:47:23;;;;;;;7.57;3.95;;;;;;;;;;4999015;28;20018;-82
2023/01/29 01:49:49;;;;;;;7.10;3.83;;;;;;;;;;4997769;28;20030;-81
2023/01/29 01:52:16;;;;;;;6.15;4.28;;;;;;;;;;4997592;28;20504;-83
2023/01/29 01:54:42;;;;;;;8.60;4.60;;;;;;;;;;4998729;28;20030;-81
2023/01/29 01:57:16;;;;;;;8.60;4.53;;;;;;;;;;5001000;28;20033;-81
2023/01/29 01:59:47;;;;;;;6.47;4.07;;;;;;;;;;5000619;28;20032;-83
2023/01/29 02:10:36;;;;;;;7.80;4.53;;;;;;;;;;5021465;28;20081;-82
2023/01/29 02:13:03;;;;;;;7.97;5.05;;;;;;;;;;5021125;28;20053;-80
2023/01/29 02:15:28;;;;;;;9.23;4.65;;;;;;;;;;5021311;28;20042;-80
2023/01/29 02:17:53;;;;;;;7.55;4.32;;;;;;;;;;5021620;28;20021;-80
2023/01/29 02:20:24;;;;;;;10.88;5.07;;;;;;;;;;5021492;28;20133;-81
2023/01/29 02:23:14;;;;;;;8.57;4.70;;;;;;;;;;5021522;28;20039;-80
2023/01/29 02:26:01;;;;;;;7.43;5.00;;;;;;;;;;5021349;28;20022;-81
2023/01/29 02:28:37;;;;;;;7.40;4.60;;;;;;;;;;5020816;28;20018;-81
2023/01/29 02:31:11;;;;;;;7.78;4.75;;;;;;;;;;5021430;28;20046;-80
2023/01/29 02:33:42;;;;;;;8.80;5.05;;;;;;;;;;5019543;28;20026;-80
2023/01/29 02:36:21;;;;;;;8.73;5.25;;;;;;;;;;5021189;28;20019;-81
2023/01/29 02:39:21;;;;;;;11.68;5.70;;;;;;;;;;5021158;28;20038;-80
2023/01/29 02:41:59;;;;;;;8.52;4.82;;;;;;;;;;5021115;28;20073;-81
2023/01/29 02:44:45;;;;;;;7.55;4.82;;;;;;;;;;5019579;28;20045;-82
2023/01/29 02:47:20;;;;;;;8.85;5.07;;;;;;;;;;5017484;28;20021;-82
2023/01/29 02:49:56;;;;;;;7.95;4.63;;;;;;;;;;5014986;28;20090;-82
2023/01/29 02:52:33;;;;;;;9.25;4.88;;;;;;;;;;5010276;28;20029;-82
2023/01/29 02:55:11;;;;;;;10.88;4.90;;;;;;;;;;5006686;28;20045;-83
2023/01/29 02:57:39;;;;;;;8.82;5.43;;;;;;;;;;5003836;28;20471;-82
2023/01/29 03:00:34;;;;;;;10.95;5.97;;;;;;;;;;5004665;28;20041;-82
2023/01/29 03:03:23;;;;;;;10.70;5.53;;;;;;;;;;4997705;28;20034;-82
2023/01/29 03:05:53;;;;;;;9.57;5.05;;;;;;;;;;4997549;28;20436;-82
2023/01/29 03:08:36;;;;;;;10.07;5.45;;;;;;;;;;4997060;28;20405;-82
2023/01/29 03:11:13;;;;;;;9.13;5.35;;;;;;;;;;4996865;28;20030;-81
2023/01/29 03:13:40;;;;;;;9.40;4.85;;;;;;;;;;4997952;28;20397;-82
2023/01/29 03:16:34;;;;;;;12.02;5.60;;;;;;;;;;4998173;28;20169;-83
2023/01/29 03:19:04;;;;;;;10.23;5.22;;;;;;;;;;4995141;28;20053;-80
2023/01/29 03:21:50;;;;;;;8.63;5.15;;;;;;;;;;4996083;28;20076;-80
2023/01/29 03:32:37;;;;;;;8.77;5.55;;;;;;;;;;4996871;28;20029;-82
2023/01/29 03:35:05;;;;;;;10.20;5.72;;;;;;;;;;4996618;28;20050;-82
2023/01/29 03:37:42;;;;;;;8.63;5.07;;;;;;;;;;4997397;28;20038;-80
2023/01/29 03:40:08;;;;;;;7.70;5.05;;;;;;;;;;4995528;28;20021;-81
2023/01/29 03:43:04;;;;;;;8.05;4.85;;;;;;;;;;4996912;28;20448;-81
2023/01/29 03:45:41;;;;;;;8.07;5.15;;;;;;;;;;4997041;28;20404;-82
2023/01/29 03:48:30;;;;;;;11.52;5.47;;;;;;;;;;4997550;28;20432;-81
2023/01/29 03:51:03;;;;;;;10.27;5.10;;;;;;;;;;4996132;28;20026;-82
2023/01/29 03:53:53;;;;;;;9.23;5.10;;;;;;;;;;4995786;28;20045;-82
2023/01/29 03:56:46;;;;;;;8.25;5.28;;;;;;;;;;4995400;28;20042;-80
2023/01/29 03:59:16;;;;;;;8.65;4.93;;;;;;;;;;4997098;28;20050;-83
2023/01/29 04:01:47;;;;;;;8.18;4.95;;;;;;;;;;4996241;28;20018;-81
2023/01/29 04:04:23;;;;;;;7.57;4.55;;;;;;;;;;4998996;28;20026;-82
2023/01/29 04:06:51;;;;;;;6.93;4.80;;;;;;;;;;4997840;28;20074;-82
2023/01/29 04:09:28;;;;;;;7.05;4.45;;;;;;;;;;4996719;28;20038;-81
2023/01/29 04:12:06;;;;;;;7.72;4.40;;;;;;;;;;4997920;28;20034;-82
2023/01/29 04:14:31;;;;;;;8.48;4.95;;;;;;;;;;4995670;28;20049;-82
2023/01/29 04:17:00;;;;;;;7.75;5.10;;;;;;;;;;4996238;28;20481;-82
2023/01/29 04:19:26;;;;;;;8.00;5.32;;;;;;;;;;4996383;28;20107;-82
2023/01/29 04:22:02;;;;;;;7.45;4.65;;;;;;;;;;4997228;28;20030;-82
2023/01/29 04:24:31;;;;;;;8.60;4.93;;;;;;;;;;4997281;28;20378;-81
2023/01/29 04:27:12;;;;;;;8.13;4.85;;;;;;;;;;4997516;28;20042;-83
2023/01/29 04:29:40;;;;;;;8.18;5.20;;;;;;;;;;4996128;28;20026;-82
2023/01/29 04:32:30;;;;;;;7.60;4.82;;;;;;;;;;4997746;28;20061;-82
2023/01/29 04:35:03;;;;;;;8.10;4.95;;;;;;;;;;4998058;28;20053;-82
2023/01/29 04:37:43;;;;;;;6.40;4.60;;;;;;;;;;4997650;28;20062;-82
2023/01/29 04:40:42;;;;;;;8.50;4.40;;;;;;;;;;4997665;28;20027;-81
2023/01/29 04:43:17;;;;;;;7.60;4.68;;;;;;;;;;4982987;28;20038;-81
2023/01/29 04:46:07;;;;;;;7.70;4.88;;;;;;;;;;4996636;28;20041;-82
2023/01/29 04:48:46;;;;;;;8.40;4.80;;;;;;;;;;4995698;28;20032;-83
2023/01/29 04:51:23;;;;;;;8.18;4.63;;;;;;;;;;4998108;28;20121;-81
2023/01/29 04:54:05;;;;;;;11.20;4.43;;;;;;;;;;4998313;28;20037;-83
2023/01/29 04:56:52;;;;;;;7.82;4.57;;;;;;;;;;4998364;28;20034;-82
2023/01/29 04:59:29;;;;;;;8.43;4.72;;;;;;;;;;4998428;28;20022;-82
2023/01/29 05:01:55;;;;;;;6.90;4.38;;;;;;;;;;4996302;28;20031;-81
2023/01/29 05:04:23;;;;;;;7.30;4.60;;;;;;;;;;4996683;28;20086;-84
2023/01/29 05:06:49;;;;;;;10.70;5.45;;;;;;;;;;4996798;28;20098;-82
2023/01/29 05:09:15;;;;;;;9.27;5.22;;;;;;;;;;4998322;28;20022;-83
2023/01/29 05:11:41;;;;;;;10.15;5.45;;;;;;;;;;4998435;28;20026;-82
2023/01/29 05:14:10;;;;;;;8.23;5.00;;;;;;;;;;4997814;28;20057;-82
2023/01/29 05:16:45;;;;;;;8.35;5.07;;;;;;;;;;4996325;28;20032;-82
2023/01/29 05:19:13;;;;;;;9.43;5.13;;;;;;;;;;4997987;28;20026;-83
2023/01/29 05:21:39;;;;;;;7.85;4.80;;;;;;;;;;4997996;28;20093;-83
2023/01/29 05:24:10;;;;;;;7.05;5.05;;;;;;;;;;4996751;28;20045;-84
2023/01/29 05:29:20;;;;;;;;;;;;;;;;;;4997494;28;20056;-82
2023/01/29 05:31:46;;;;;;;9.15;5.47;;;;;;;;;;5001254;28;19910;-83
2023/01/29 05:34:11;;;;;;;7.55;4.65;;;;;;;;;;5000111;28;20037;-83
2023/01/29 05:36:36;;;;;;;7.63;4.72;;;;;;;;;;4999842;28;20042;-83
2023/01/29 05:39:01;;;;;;;10.52;5.45;;;;;;;;;;5000112;28;20022;-80
2023/01/29 05:41:27;;;;;;;7.88;5.22;;;;;;;;;;5001252;28;20053;-81
2023/01/29 05:43:52;;;;;;;8.85;5.28;;;;;;;;;;5001335;28;20041;-81
2023/01/29 05:46:17;;;;;;;8.63;5.28;;;;;;;;;;5001791;28;20029;-83
2023/01/29 05:48:43;;;;;;;10.00;5.25;;;;;;;;;;5000313;28;20034;-82
2023/01/29 05:51:08;;;;;;;10.43;5.78;;;;;;;;;;5001364;28;20564;-84
2023/01/29 05:53:33;;;;;;;9.55;5.55;;;;;;;;;;5002591;28;20037;-84
2023/01/29 05:56:03;;;;;;;7.72;5.57;;;;;;;;;;5001103;28;20030;-82
2023/01/29 05:58:32;;;;;;;10.55;5.25;;;;;;;;;;5001454;28;20030;-84
2023/01/29 06:00:57;;;;;;;12.35;5.85;;;;;;;;;;5001880;28;20485;-84
2023/01/29 06:03:22;;;;;;;9.57;5.40;;;;;;;;;;5000675;28;20038;-83
2023/01/29 06:05:48;;;;;;;10.55;5.90;;;;;;;;;;5002313;28;20026;-84
2023/01/29 06:08:13;;;;;;;10.93;5.97;;;;;;;;;;5001777;28;20030;-83
2023/01/29 06:10:38;;;;;;;10.65;5.90;;;;;;;;;;5001988;28;20026;-84
2023/01/29 06:13:03;;;;;;;12.55;5.57;;;;;;;;;;5001643;28;20073;-84
2023/01/29 06:15:29;;;;;;;11.20;6.38;;;;;;;;;;5001586;28;20026;-84
2023/01/29 06:17:55;;;;;;;9.88;5.80;;;;;;;;;;5001822;28;20030;-85
2023/01/29 06:20:20;;;;;;;11.55;5.90;;;;;;;;;;5001183;28;20052;-84
2023/01/29 06:22:45;;;;;;;9.75;5.53;;;;;;;;;;5001666;28;20035;-84
2023/01/29 06:25:14;;;;;;;9.70;5.55;;;;;;;;;;5000941;28;20117;-83
2023/01/29 06:27:39;;;;;;;9.80;6.05;;;;;;;;;;5000629;28;20034;-82
2023/01/29 06:30:05;;;;;;;10.90;6.20;;;;;;;;;;5000899;28;20018;-82
2023/01/29 06:32:31;;;;;;;10.35;5.70;;;;;;;;;;5001149;28;20026;-83
2023/01/29 06:34:56;;;;;;;10.27;5.53;;;;;;;;;;5001439;28;20081;-84
2023/01/29 06:37:21;;;;;;;9.05;5.22;;;;;;;;;;5001643;28;20113;-83
2023/01/29 06:39:46;;;;;;;8.13;4.97;;;;;;;;;;5000043;28;20049;-83
2023/01/29 06:42:12;;;;;;;9.10;5.72;;;;;;;;;;4999951;28;20397;-84
2023/01/29 06:44:37;;;;;;;10.57;5.47;;;;;;;;;;5001757;28;20073;-83
2023/01/29 06:47:02;;;;;;;10.88;6.07;;;;;;;;;;5001487;28;20030;-84
2023/01/29 06:49:27;;;;;;;7.13;5.13;;;;;;;;;;5001223;28;20050;-84
2023/01/29 06:51:53;;;;;;;8.65;4.85;;;;;;;;;;5000991;28;20458;-84
2023/01/29 06:54:18;;;;;;;11.38;6.03;;;;;;;;;;5001971;28;20367;-85
2023/01/29 06:56:43;;;;;;;8.80;5.60;;;;;;;;;;5000919;28;20401;-84
2023/01/29 06:59:10;;;;;;;11.07;5.53;;;;;;;;;;5000774;28;20379;-83
2023/01/29 07:01:39;;;;;;;9.65;5.32;;;;;;;;;;5001015;28;20018;-82
2023/01/29 07:04:05;;;;;;;15.55;5.60;;;;;;;;;;5001066;28;20049;-83
2023/01/29 07:06:30;;;;;;;8.50;5.68;;;;;;;;;;5000451;28;20097;-84
2023/01/29 07:08:56;;;;;;;8.30;5.68;;;;;;;;;;4999887;28;20023;-83
2023/01/29 07:11:21;;;;;;;8.25;5.57;;;;;;;;;;4998896;28;20028;-83
2023/01/29 07:13:46;;;;;;;8.18;5.38;;;;;;;;;;4999638;28;20030;-83
2023/01/29 07:16:11;;;;;;;10.10;5.35;;;;;;;;;;4999270;28;20022;-81
2023/01/29 07:18:36;;;;;;;8.23;5.07;;;;;;;;;;4999978;28;20050;-84
2023/01/29 07:21:06;;;;;;;7.80;4.90;;;;;;;;;;4998753;28;20019;-82
2023/01/29 07:23:32;;;;;;;8.70;4.82;;;;;;;;;;5001455;28;20079;-82
2023/01/29 07:26:01;;;;;;;6.97;4.65;;;;;;;;;;5004029;28;20015;-84
2023/01/29 07:28:26;;;;;;;9.70;5.60;;;;;;;;;;5000489;28;20110;-83
2023/01/29 07:30:55;;;;;;;10.45;5.30;;;;;;;;;;4999819;28;20437;-80
2023/01/29 07:33:21;;;;;;;9.27;5.28;;;;;;;;;;5000271;28;20082;-83
2023/01/29 07:35:46;;;;;;;11.00;4.93;;;;;;;;;;5000366;28;20484;-83
2023/01/29 07:38:11;;;;;;;8.23;5.18;;;;;;;;;;5001352;28;20508;-82
2023/01/29 07:40:36;;;;;;;12.55;5.68;;;;;;;;;;5000518;28;20466;-82
2023/01/29 07:43:05;;;;;;;9.43;4.95;;;;;;;;;;5000577;28;20041;-83
2023/01/29 07:45:33;;;;;;;12.52;5.30;;;;;;;;;;4999263;28;20415;-82
2023/01/29 07:47:58;;;;;;;8.30;5.20;;;;;;;;;;5001533;28;20485;-82
2023/01/29 07:50:24;;;;;;;6.97;4.90;;;;;;;;;;5001601;28;20065;-83
2023/01/29 07:52:50;;;;;;;9.52;5.10;;;;;;;;;;5001741;28;20515;-83
2023/01/29 07:55:16;;;;;;;10.43;5.75;;;;;;;;;;5000013;28;20027;-82
2023/01/29 07:57:41;;;;;;;9.27;5.32;;;;;;;;;;5000004;28;20022;-82
2023/01/29 08:00:09;;;;;;;9.27;4.90;;;;;;;;;;5000539;28;20485;-83
2023/01/29 08:02:34;;;;;;;9.82;5.03;;;;;;;;;;5002209;28;20026;-82
2023/01/29 08:04:59;;;;;;;9.30;5.60;;;;;;;;;;5000846;28;20042;-84
2023/01/29 08:07:24;;;;;;;7.82;5.00;;;;;;;;;;5000777;28;20042;-82
2023/01/29 08:09:49;;;;;;;8.50;5.28;;;;;;;;;;4999059;28;20026;-83
2023/01/29 08:12:15;;;;;;;9.30;5.95;;;;;;;;;;4997898;28;20030;-84
2023/01/29 08:14:40;;;;;;;18.58;8.48;;;;;;;;;;4997594;28;20485;-83
2023/01/29 08:17:08;;;;;;;22.38;10.25;;;;;;;;;;4998371;28;20480;-82
2023/01/29 08:19:33;;;;;;;16.45;7.78;;;;;;;;;;4999046;28;20076;-83
2023/01/29 08:21:58;;;;;;;10.68;5.55;;;;;;;;;;5000563;28;20113;-82
2023/01/29 08:24:24;;;;;;;13.88;5.68;;;;;;;;;;5001595;28;20077;-82
2023/01/29 08:26:49;;;;;;;10.48;6.07;;;;;;;;;;5002122;28;20030;-81
2023/01/29 08:29:14;;;;;;;15.35;7.18;;;;;;;;;;5001735;28;20085;-81
2023/01/29 08:31:39;;;;;;;12.10;5.50;;;;;;;;;;5001015;28;20030;-82
2023/01/29 08:34:05;;;;;;;7.50;5.20;;;;;;;;;;5002183;28;20026;-81
2023/01/29 08:36:30;;;;;;;7.22;4.47;;;;;;;;;;5001876;28;20085;-82
2023/01/29 08:38:55;;;;;;;7.32;4.55;;;;;;;;;;4999870;28;20133;-83
2023/01/29 08:41:20;;;;;;;8.23;5.03;;;;;;;;;;4998137;28;20025;-83
2023/01/29 08:43:46;;;;;;;7.97;4.90;;;;;;;;;;4998619;28;20026;-84
2023/01/29 08:46:11;;;;;;;9.52;5.78;;;;;;;;;;4998601;28;20109;-83
2023/01/29 08:48:36;;;;;;;6.63;3.75;;;;;;;;;;4997681;28;20086;-82
2023/01/29 08:51:03;;;;;;;7.93;4.90;;;;;;;;;;4996042;28;20022;-84
2023/01/29 08:53:29;;;;;;;9.52;5.20;;;;;;;;;;4996949;28;20027;-82
2023/01/29 08:55:54;;;;;;;11.40;6.05;;;;;;;;;;4997947;28;20077;-82
2023/01/29 08:58:19;;;;;;;13.05;6.55;;;;;;;;;;4998401;28;20022;-81
2023/01/29 09:00:45;;;;;;;7.65;4.30;;;;;;;;;;4999387;28;20054;-81
2023/01/29 09:03:10;;;;;;;8.30;5.00;;;;;;;;;;5001156;28;20033;-81
2023/01/29 09:05:39;;;;;;;6.93;4.07;;;;;;;;;;5001901;28;20037;-81
2023/01/29 09:08:05;;;;;;;6.13;4.22;;;;;;;;;;5006094;28;20030;-82
2023/01/29 09:10:31;;;;;;;7.10;4.22;;;;;;;;;;5006295;28;20031;-82
2023/01/29 09:12:56;;;;;;;7.68;4.78;;;;;;;;;;5006291;28;20061;-81
2023/01/29 09:15:22;;;;;;;8.13;4.72;;;;;;;;;;5006065;28;20022;-80
2023/01/29 09:17:48;;;;;;;7.97;4.60;;;;;;;;;;5002885;28;20385;-82
2023/01/29 09:20:13;;;;;;;10.45;4.55;;;;;;;;;;5005610;28;20022;-82
2023/01/29 09:22:39;;;;;;;8.68;5.10;;;;;;;;;;5004345;28;20026;-83
2023/01/29 09:25:04;;;;;;;6.55;4.40;;;;;;;;;;5003698;28;20440;-82
2023/01/29 09:27:30;;;;;;;7.85;4.60;;;;;;;;;;5003229;28;20040;-82
2023/01/29 09:29:55;;;;;;;9.00;5.13;;;;;;;;;;5006859;28;20029;-81
2023/01/29 09:32:20;;;;;;;8.05;4.82;;;;;;;;;;5021779;28;20026;-82
2023/01/29 09:34:45;;;;;;;8.73;5.10;;;;;;;;;;5022069;28;20010;-81
2023/01/29 09:37:10;;;;;;;12.13;5.50;;;;;;;;;;5022031;28;20022;-83
2023/01/29 09:39:36;;;;;;;8.55;5.63;;;;;;;;;;5022080;28;20018;-81
2023/01/29 09:42:14;;;;;;;9.05;5.18;;;;;;;;;;5020943;28;20057;-81
2023/01/29 09:45:00;;;;;;;8.80;4.60;;;;;;;;;;5022005;28;20029;-80
2023/01/29 09:47:26;;;;;;;7.70;4.93;;;;;;;;;;5021929;28;20014;-82
2023/01/29 09:49:59;;;;;;;8.93;5.38;;;;;;;;;;5021929;28;20030;-81
2023/01/29 09:52:27;;;;;;;8.25;5.13;;;;;;;;;;5019948;28;20042;-82
2023/01/29 09:55:11;;;;;;;8.95;5.20;;;;;;;;;;5021842;28;19998;-81
2023/01/29 09:57:39;;;;;;;;;;;;;;;;;;5021549;28;20021;-81
2023/01/29 10:00:09;;;;;;;7.47;4.60;;;;;;;;;;5020981;28;19902;-82
2023/01/29 10:02:53;;;;;;;10.27;4.60;;;;;;;;;;5009876;28;20080;-82
2023/01/29 10:05:31;;;;;;;7.25;4.32;;;;;;;;;;5000328;28;20026;-81
2023/01/29 10:08:28;;;;;;;8.55;5.05;;;;;;;;;;4998815;28;20029;-81
2023/01/29 10:11:12;;;;;;;9.27;4.85;;;;;;;;;;4999991;28;20022;-82
2023/01/29 10:14:10;;;;;;;8.05;5.15;;;;;;;;;;4999245;28;20113;-81
2023/01/29 10:16:50;;;;;;;7.95;4.75;;;;;;;;;;4998336;28;20050;-82
2023/01/29 10:19:50;;;;;;;9.73;5.68;;;;;;;;;;4999918;28;20030;-81
2023/01/29 10:22:51;;;;;;;8.48;5.00;;;;;;;;;;4999620;28;20105;-81
2023/01/29 10:25:19;;;;;;;7.70;5.13;;;;;;;;;;4999618;28;20034;-80
2023/01/29 10:27:49;;;;;;;7.82;5.03;;;;;;;;;;4998336;28;20386;-81
2023/01/29 10:30:30;;;;;;;9.70;5.40;;;;;;;;;;5000201;28;20018;-81
2023/01/29 10:33:02;;;;;;;9.50;5.28;;;;;;;;;;5000688;28;20073;-82
2023/01/29 10:35:34;;;;;;;7.53;4.93;;;;;;;;;;5002717;28;20053;-82
2023/01/29 10:38:17;;;;;;;8.10;5.10;;;;;;;;;;5005656;28;20396;-81
2023/01/29 10:41:03;;;;;;;7.50;5.00;;;;;;;;;;5004580;28;20026;-81
2023/01/29 10:43:47;;;;;;;14.25;5.97;;;;;;;;;;5005255;28;20019;-82
2023/01/29 10:46:38;;;;;;;11.25;5.70;;;;;;;;;;5005414;28;20397;-81
2023/01/29 10:49:32;;;;;;;8.10;5.32;;;;;;;;;;5006153;28;20030;-82
2023/01/29 10:52:08;;;;;;;11.30;5.53;;;;;;;;;;5006812;28;20030;-81
2023/01/29 10:55:07;;;;;;;9.20;5.47;;;;;;;;;;5007193;28;20038;-83
2023/01/29 10:58:04;;;;;;;9.68;6.03;;;;;;;;;;5008157;28;20041;-83
2023/01/29 11:00:37;;;;;;;8.80;5.57;;;;;;;;;;5006507;28;20030;-82
2023/01/29 11:03:20;;;;;;;7.38;5.25;;;;;;;;;;5006693;28;20018;-82
2023/01/29 11:05:55;;;;;;;9.88;5.57;;;;;;;;;;5006698;28;20042;-82
2023/01/29 11:08:23;;;;;;;11.02;6.05;;;;;;;;;;5006823;28;20065;-83
2023/01/29 11:10:51;;;;;;;9.70;5.88;;;;;;;;;;5007257;28;20101;-81
2023/01/29 11:13:17;;;;;;;8.02;5.55;;;;;;;;;;5006661;28;20030;-81
2023/01/29 11:15:42;;;;;;;7.40;5.10;;;;;;;;;;5005522;28;20423;-83
2023/01/29 11:18:14;;;;;;;11.05;5.65;;;;;;;;;;5003858;28;20038;-81
2023/01/29 11:20:41;;;;;;;19.55;7.32;;;;;;;;;;5006523;28;20037;-81
2023/01/29 11:23:25;;;;;;;16.90;6.90;;;;;;;;;;5006286;28;20022;-82
2023/01/29 11:25:52;;;;;;;16.95;7.00;;;;;;;;;;5005538;28;20022;-83
2023/01/29 11:28:34;;;;;;;10.18;5.57;;;;;;;;;;5004703;28;20057;-83
2023/01/29 11:31:01;;;;;;;16.05;7.40;;;;;;;;;;5004670;28;20018;-84
2023/01/29 11:33:27;;;;;;;16.95;7.28;;;;;;;;;;5004381;28;20093;-81
2023/01/29 11:35:57;;;;;;;12.45;6.07;;;;;;;;;;5006021;28;20054;-82
2023/01/29 11:38:28;;;;;;;10.10;5.43;;;;;;;;;;5005762;28;20022;-81
2023/01/29 11:41:05;;;;;;;10.68;6.38;;;;;;;;;;5005488;28;20129;-82
2023/01/29 11:43:31;;;;;;;13.65;5.63;;;;;;;;;;5006271;28;20026;-81
2023/01/29 11:46:03;;;;;;;8.50;5.90;;;;;;;;;;5005542;28;20026;-82
2023/01/29 11:48:40;;;;;;;8.15;5.55;;;;;;;;;;5006346;28;20033;-82
2023/01/29 11:51:06;;;;;;;10.48;5.50;;;;;;;;;;5005821;28;20057;-81
2023/01/29 11:53:36;;;;;;;7.88;5.32;;;;;;;;;;5005189;28;20089;-80
2023/01/29 11:56:18;;;;;;;9.20;5.30;;;;;;;;;;5006625;28;20084;-82
2023/01/29 11:58:45;;;;;;;8.35;5.43;;;;;;;;;;5004897;28;20034;-81
2023/01/29 12:01:11;;;;;;;10.65;5.53;;;;;;;;;;5004456;28;20161;-79
2023/01/29 12:03:43;;;;;;;8.60;5.63;;;;;;;;;;5004421;28;20485;-82
2023/01/29 12:06:25;;;;;;;13.30;6.00;;;;;;;;;;5004442;28;20448;-81
2023/01/29 12:08:57;;;;;;;10.65;6.03;;;;;;;;;;5004030;28;20028;-82
2023/01/29 12:11:30;;;;;;;10.43;5.90;;;;;;;;;;5001964;28;20113;-81
2023/01/29 12:14:04;;;;;;;12.25;5.38;;;;;;;;;;5001830;28;20026;-82
2023/01/29 12:16:35;;;;;;;9.50;5.10;;;;;;;;;;5001021;28;20057;-79
2023/01/29 12:19:10;;;;;;;10.68;5.57;;;;;;;;;;5003628;28;20022;-81
2023/01/29 12:21:45;;;;;;;8.13;4.80;;;;;;;;;;5003984;28;20023;-82
2023/01/29 12:24:32;;;;;;;10.07;5.47;;;;;;;;;;5006161;28;20030;-81
2023/01/29 12:27:00;;;;;;;8.20;4.90;;;;;;;;;;5004965;28;20150;-81
2023/01/29 12:29:43;;;;;;;9.15;4.93;;;;;;;;;;5004951;28;20041;-83
2023/01/29 12:32:50;;;;;;;9.05;5.22;;;;;;;;;;5002857;28;20026;-81
2023/01/29 12:35:33;;;;;;;7.05;5.18;;;;;;;;;;4999719;28;20078;-82
2023/01/29 12:38:06;;;;;;;10.02;4.97;;;;;;;;;;5003862;28;20022;-81
2023/01/29 12:40:38;;;;;;;10.70;5.10;;;;;;;;;;5002240;28;20103;-82
2023/01/29 12:43:13;;;;;;;7.18;4.65;;;;;;;;;;5002209;28;20112;-83
2023/01/29 12:45:41;;;;;;;12.13;5.05;;;;;;;;;;5002367;28;20117;-81
2023/01/29 12:48:11;;;;;;;11.15;5.75;;;;;;;;;;5001440;28;20033;-79
2023/01/29 12:50:38;;;;;;;8.75;5.72;;;;;;;;;;5002508;28;20033;-81
2023/01/29 12:53:26;;;;;;;8.27;5.35;;;;;;;;;;5003355;28;20027;-82
2023/01/29 12:56:08;;;;;;;9.00;5.07;;;;;;;;;;5003626;28;20026;-80
2023/01/29 12:58:47;;;;;;;8.80;4.90;;;;;;;;;;5002255;28;20404;-81
2023/01/29 13:01:18;;;;;;;9.95;5.47;;;;;;;;;;5001114;28;20471;-82
2023/01/29 13:03:53;;;;;;;11.13;5.03;;;;;;;;;;5000545;28;20061;-80
2023/01/29 13:06:32;;;;;;;12.77;5.72;;;;;;;;;;5000710;28;20038;-81
2023/01/29 13:09:03;;;;;;;8.85;5.43;;;;;;;;;;5001122;28;20046;-81
2023/01/29 13:11:36;;;;;;;10.32;5.50;;;;;;;;;;4999750;28;20034;-81
2023/01/29 13:14:42;;;;;;;7.18;4.88;;;;;;;;;;5000535;28;20086;-82
2023/01/29 13:17:14;;;;;;;9.75;5.53;;;;;;;;;;4993864;28;20039;-80
2023/01/29 13:19:44;;;;;;;8.93;5.63;;;;;;;;;;4999170;28;20121;-82
2023/01/29 13:22:22;;;;;;;9.90;5.38;;;;;;;;;;4998843;28;20022;-82
2023/01/29 13:24:47;;;;;;;8.25;4.90;;;;;;;;;;4999785;28;20030;-83
2023/01/29 13:27:22;;;;;;;10.02;5.53;;;;;;;;;;4999381;28;20092;-81
2023/01/29 13:29:48;;;;;;;8.43;5.07;;;;;;;;;;4998660;28;20036;-82
2023/01/29 13:32:20;;;;;;;8.13;5.00;;;;;;;;;;4998853;28;20030;-81
2023/01/29 13:34:47;;;;;;;12.32;5.90;;;;;;;;;;4998930;28;20117;-81
2023/01/29 13:37:28;;;;;;;9.27;5.63;;;;;;;;;;4998357;28;20049;-81
2023/01/29 13:39:54;;;;;;;9.73;5.28;;;;;;;;;;5003300;28;20019;-84
2023/01/29 13:42:20;;;;;;;7.78;5.30;;;;;;;;;;5001250;28;20033;-80
2023/01/29 13:44:55;;;;;;;9.18;5.63;;;;;;;;;;5003227;28;20113;-80
2023/01/29 13:47:38;;;;;;;11.73;5.60;;;;;;;;;;5002988;28;20029;-80
2023/01/29 13:50:36;;;;;;;9.30;4.97;;;;;;;;;;4995377;28;20034;-75
2023/01/29 13:53:04;;;;;;;8.88;4.97;;;;;;;;;;4996059;28;20035;-75
2023/01/29 13:55:39;;;;;;;11.25;5.78;;;;;;;;;;4997754;28;20110;-75
2023/01/29 13:58:42;;;;;;;8.15;4.88;;;;;;;;;;4998296;28;20038;-74
2023/01/29 14:01:07;;;;;;;9.23;5.18;;;;;;;;;;4997309;28;20026;-75
2023/01/29 14:03:42;;;;;;;7.93;5.03;;;;;;;;;;4996059;28;20022;-76
2023/01/29 14:06:07;;;;;;;11.55;5.43;;;;;;;;;;5003270;28;20023;-82
2023/01/29 14:08:42;;;;;;;13.90;5.85;;;;;;;;;;5004566;28;20026;-81
2023/01/29 14:11:14;;;;;;;10.07;5.57;;;;;;;;;;5004171;28;20496;-81
2023/01/29 14:13:44;;;;;;;10.02;5.55;;;;;;;;;;5003169;28;20030;-81
2023/01/29 14:16:29;;;;;;;9.80;5.18;;;;;;;;;;5003410;28;20097;-82
2023/01/29 14:18:59;;;;;;;8.30;4.78;;;;;;;;;;5003237;28;20061;-81
2023/01/29 14:21:31;;;;;;;8.18;5.40;;;;;;;;;;5003041;28;20030;-81
2023/01/29 14:24:06;;;;;;;13.80;4.95;;;;;;;;;;5004178;28;20026;-82
2023/01/29 14:26:44;;;;;;;9.77;5.18;;;;;;;;;;5003317;28;20030;-82
2023/01/29 14:29:22;;;;;;;9.00;5.45;;;;;;;;;;5003939;28;20030;-80
2023/01/29 14:31:56;;;;;;;11.07;5.10;;;;;;;;;;5004166;28;20169;-82
2023/01/29 14:34:26;;;;;;;8.68;5.20;;;;;;;;;;5004660;28;20022;-79
2023/01/29 14:36:55;;;;;;;9.32;5.13;;;;;;;;;;5001671;28;20018;-80
2023/01/29 14:39:33;;;;;;;7.32;4.35;;;;;;;;;;5001501;28;20041;-81
2023/01/29 14:41:59;;;;;;;8.82;4.70;;;;;;;;;;5001312;28;20458;-80
2023/01/29 14:44:43;;;;;;;9.00;5.50;;;;;;;;;;5003441;28;20456;-81
2023/01/29 14:47:20;;;;;;;12.05;4.82;;;;;;;;;;5002083;28;20122;-80
2023/01/29 14:49:53;;;;;;;9.00;4.80;;;;;;;;;;5003862;28;20038;-81
2023/01/29 14:52:21;;;;;;;8.13;4.90;;;;;;;;;;5003090;28;20103;-81
2023/01/29 14:54:48;;;;;;;11.82;4.70;;;;;;;;;;5002476;28;20555;-82
2023/01/29 14:57:18;;;;;;;7.95;4.95;;;;;;;;;;5002049;28;20034;-81
2023/01/29 15:00:08;;;;;;;8.23;4.82;;;;;;;;;;5002076;28;20485;-82
2023/01/29 15:02:43;;;;;;;8.07;4.32;;;;;;;;;;4999931;28;20405;-80
2023/01/29 15:05:17;;;;;;;7.70;4.55;;;;;;;;;;5002260;28;20498;-79
2023/01/29 15:08:02;;;;;;;7.85;4.70;;;;;;;;;;5003202;28;20046;-82
2023/01/29 15:10:42;;;;;;;9.63;4.85;;;;;;;;;;5004731;28;20026;-81
2023/01/29 15:13:19;;;;;;;9.40;5.13;;;;;;;;;;5004302;28;20109;-81
2023/01/29 15:16:07;;;;;;;10.65;5.13;;;;;;;;;;5004459;28;20153;-82
2023/01/29 15:18:38;;;;;;;7.75;4.45;;;;;;;;;;5002440;28;20029;-80
2023/01/29 15:21:11;;;;;;;7.70;4.93;;;;;;;;;;5003457;28;20030;-80
2023/01/29 15:23:37;;;;;;;8.18;5.10;;;;;;;;;;5002627;28;20034;-81
2023/01/29 15:26:05;;;;;;;8.20;4.63;;;;;;;;;;5004944;28;20380;-80
2023/01/29 15:28:34;;;;;;;9.60;5.05;;;;;;;;;;5004084;28;20073;-80
2023/01/29 15:31:03;;;;;;;8.00;4.88;;;;;;;;;;5002828;28;20037;-81
2023/01/29 15:33:29;;;;;;;6.65;4.50;;;;;;;;;;5001148;28;20026;-81
2023/01/29 15:36:00;;;;;;;7.00;4.10;;;;;;;;;;5003100;28;20076;-82